createdAt,value
2022-10-16T00:01:46.635Z,684.97
2022-10-16T00:04:15.439Z,715.57
2022-10-16T00:06:43.554Z,696.67
2022-10-16T00:09:11.976Z,716.90
2022-10-16T00:11:41.796Z,739.10
2022-10-16T00:14:13.882Z,716.37
2022-10-16T00:16:42.246Z,755.17
2022-10-16T00:19:11.634Z,767.03
2022-10-16T00:21:39.995Z,763.63
2022-10-16T00:24:26.551Z,736.83
2022-10-16T00:26:54.518Z,739.07
2022-10-16T00:29:24.094Z,764.43
2022-10-16T00:31:52.153Z,773.73
2022-10-16T00:34:20.472Z,736.83
2022-10-16T00:36:48.884Z,742.63
2022-10-16T00:39:16.964Z,716.63
2022-10-16T00:41:44.956Z,715.60
2022-10-16T00:44:45.832Z,722.13
2022-10-16T00:47:23.832Z,683.50
2022-10-16T00:49:54.289Z,673.67
2022-10-16T00:52:22.649Z,686.33
2022-10-16T00:54:52.085Z,697.43
2022-10-16T00:57:20.266Z,690.57
2022-10-16T00:59:49.766Z,674.20
2022-10-16T01:02:19.357Z,678.60
2022-10-16T01:04:49.852Z,675.33
2022-10-16T01:07:26.917Z,691.60
2022-10-16T01:10:03.090Z,668.40
2022-10-16T01:12:38.829Z,670.90
2022-10-16T01:15:14.156Z,653.70
2022-10-16T01:17:47.926Z,674.43
2022-10-16T01:20:23.401Z,673.80
2022-10-16T01:23:00.461Z,677.70
2022-10-16T01:25:39.610Z,667.10
2022-10-16T01:28:11.653Z,673.63
2022-10-16T01:30:40.118Z,671.37
2022-10-16T01:33:12.444Z,676.63
2022-10-16T01:35:44.209Z,674.97
2022-10-16T01:38:16.541Z,669.93
2022-10-16T01:40:47.889Z,684.37
2022-10-16T01:43:20.203Z,677.17
2022-10-16T01:45:48.751Z,677.87
2022-10-16T01:48:21.814Z,685.10
2022-10-16T01:50:55.910Z,688.87
2022-10-16T01:53:24.492Z,688.83
2022-10-16T01:55:54.871Z,701.10
2022-10-16T01:58:25.708Z,708.23
2022-10-16T02:00:54.605Z,717.87
2022-10-16T02:03:24.987Z,713.23
2022-10-16T02:05:55.280Z,727.27
2022-10-16T02:08:25.344Z,734.57
2022-10-16T02:10:53.652Z,729.00
2022-10-16T02:13:26.305Z,717.37
2022-10-16T02:15:54.376Z,696.60
2022-10-16T02:18:23.262Z,686.83
2022-10-16T02:20:53.670Z,652.67
2022-10-16T02:23:27.529Z,637.80
2022-10-16T02:25:56.649Z,634.17
2022-10-16T02:28:28.789Z,642.07
2022-10-16T02:31:00.000Z,686.20
2022-10-16T02:33:28.727Z,705.57
2022-10-16T02:35:59.724Z,729.93
2022-10-16T02:38:28.112Z,729.83
2022-10-16T02:40:56.886Z,778.23
2022-10-16T02:43:26.944Z,782.03
2022-10-16T02:45:55.014Z,793.57
2022-10-16T02:48:23.023Z,822.33
2022-10-16T02:50:51.081Z,790.93
2022-10-16T02:53:19.187Z,821.03
2022-10-16T02:55:47.175Z,829.77
2022-10-16T02:58:15.298Z,827.00
2022-10-16T03:00:44.801Z,815.23
2022-10-16T03:03:12.847Z,835.33
2022-10-16T03:05:41.053Z,857.23
2022-10-16T03:08:09.269Z,848.90
2022-10-16T03:10:37.287Z,849.30
2022-10-16T03:13:05.332Z,831.17
2022-10-16T03:15:33.383Z,873.87
2022-10-16T03:18:02.777Z,887.97
2022-10-16T03:20:30.899Z,901.57
2022-10-16T03:22:58.959Z,915.50
2022-10-16T03:25:27.052Z,914.67
2022-10-16T03:27:55.148Z,917.20
2022-10-16T03:30:23.366Z,930.40
2022-10-16T03:32:55.010Z,917.37
2022-10-16T03:35:25.429Z,924.07
2022-10-16T03:37:53.513Z,931.80
2022-10-16T03:40:21.623Z,938.67
2022-10-16T03:42:49.737Z,930.60
2022-10-16T03:45:17.965Z,934.97
2022-10-16T03:47:46.084Z,946.10
2022-10-16T03:50:14.223Z,937.60
2022-10-16T03:52:43.793Z,939.97
2022-10-16T03:55:11.912Z,930.93
2022-10-16T03:57:39.997Z,936.57
2022-10-16T04:00:09.177Z,940.27
2022-10-16T04:02:43.137Z,931.83
2022-10-16T04:05:11.257Z,941.03
2022-10-16T04:07:39.805Z,942.37
2022-10-16T04:10:10.373Z,935.60
2022-10-16T04:12:38.500Z,938.23
2022-10-16T04:15:06.984Z,936.53
2022-10-16T04:17:35.108Z,940.83
2022-10-16T04:20:03.153Z,940.43
2022-10-16T04:22:31.238Z,937.77
2022-10-16T04:24:59.245Z,942.87
2022-10-16T04:27:29.612Z,934.93
2022-10-16T04:29:58.634Z,929.67
2022-10-16T04:32:26.986Z,925.03
2022-10-16T04:34:55.567Z,933.90
2022-10-16T04:37:26.122Z,932.20
2022-10-16T04:39:54.608Z,927.57
2022-10-16T04:42:22.974Z,919.13
2022-10-16T04:44:52.412Z,918.73
2022-10-16T04:47:20.621Z,934.97
2022-10-16T04:49:48.845Z,924.63
2022-10-16T04:52:17.274Z,908.93
2022-10-16T04:54:46.432Z,910.70
2022-10-16T04:57:14.570Z,910.60
2022-10-16T04:59:42.657Z,894.73
2022-10-16T05:02:12.239Z,887.13
2022-10-16T05:04:40.309Z,873.83
2022-10-16T05:07:08.381Z,861.83
2022-10-16T05:09:36.423Z,846.37
2022-10-16T05:12:05.127Z,851.87
2022-10-16T05:14:33.217Z,832.40
2022-10-16T05:17:02.185Z,824.17
2022-10-16T05:19:31.615Z,818.23
2022-10-16T05:22:00.089Z,799.33
2022-10-16T05:24:28.386Z,787.23
2022-10-16T05:26:56.618Z,783.77
2022-10-16T05:29:24.672Z,767.77
2022-10-16T05:31:54.000Z,772.07
2022-10-16T05:34:22.956Z,754.33
2022-10-16T05:36:52.878Z,726.30
2022-10-16T05:39:21.252Z,731.90
2022-10-16T05:41:51.902Z,739.57
2022-10-16T05:44:20.011Z,753.63
2022-10-16T05:46:48.370Z,743.73
2022-10-16T05:49:16.704Z,744.10
2022-10-16T05:51:44.829Z,718.60
2022-10-16T05:54:14.509Z,747.17
2022-10-16T05:56:42.514Z,741.57
2022-10-16T05:59:10.671Z,755.10
2022-10-16T06:01:39.040Z,723.37
2022-10-16T06:04:07.368Z,742.23
2022-10-16T06:06:37.253Z,731.47
2022-10-16T06:09:06.080Z,745.27
2022-10-16T06:11:35.855Z,749.83
2022-10-16T06:14:07.770Z,754.60
2022-10-16T06:16:36.426Z,753.43
2022-10-16T06:19:07.296Z,753.83
2022-10-16T06:21:35.801Z,725.87
2022-10-16T06:24:04.297Z,741.63
2022-10-16T06:26:33.480Z,741.13
2022-10-16T06:29:03.195Z,772.50
2022-10-16T06:31:34.286Z,730.83
2022-10-16T06:34:04.349Z,753.83
2022-10-16T06:36:32.502Z,737.70
2022-10-16T06:39:00.533Z,740.03
2022-10-16T06:41:28.732Z,739.87
2022-10-16T06:43:56.813Z,721.17
2022-10-16T06:46:27.381Z,724.10
2022-10-16T06:48:55.744Z,727.50
2022-10-16T06:51:25.149Z,736.43
2022-10-16T06:54:02.909Z,731.63
2022-10-16T06:56:32.868Z,718.40
2022-10-16T06:59:01.695Z,730.23
2022-10-16T07:01:31.730Z,726.57
2022-10-16T07:04:00.006Z,723.47
2022-10-16T07:06:28.928Z,740.57
2022-10-16T07:08:57.076Z,734.17
2022-10-16T07:11:26.094Z,754.80
2022-10-16T07:13:56.071Z,765.27
2022-10-16T07:16:26.747Z,782.93
2022-10-16T07:19:00.249Z,745.13
2022-10-16T07:21:31.575Z,736.67
2022-10-16T07:24:02.199Z,744.03
2022-10-16T07:26:32.692Z,742.13
2022-10-16T07:29:01.355Z,757.77
2022-10-16T07:31:30.038Z,766.07
2022-10-16T07:34:00.322Z,764.33
2022-10-16T07:36:28.677Z,779.33
2022-10-16T07:38:59.981Z,797.83
2022-10-16T07:41:29.247Z,771.50
2022-10-16T07:43:58.388Z,786.90
2022-10-16T07:46:27.065Z,787.03
2022-10-16T07:48:55.368Z,790.77
2022-10-16T07:51:26.353Z,788.57
2022-10-16T07:53:55.129Z,792.00
2022-10-16T07:56:23.794Z,813.47
2022-10-16T07:58:52.566Z,790.37
2022-10-16T08:01:21.341Z,823.90
2022-10-16T08:03:50.921Z,867.33
2022-10-16T08:06:23.480Z,885.27
2022-10-16T08:08:58.247Z,883.73
2022-10-16T08:11:27.149Z,905.10
2022-10-16T08:13:55.955Z,901.10
2022-10-16T08:16:24.873Z,901.20
2022-10-16T08:18:53.177Z,912.27
2022-10-16T08:21:24.191Z,912.80
2022-10-16T08:23:56.698Z,909.37
2022-10-16T08:26:28.475Z,916.20
2022-10-16T08:28:57.243Z,922.87
2022-10-16T08:31:27.152Z,912.33
2022-10-16T08:33:55.582Z,917.63
2022-10-16T08:36:23.707Z,908.17
2022-10-16T08:38:54.457Z,891.80
2022-10-16T08:41:32.370Z,896.37
2022-10-16T08:44:13.092Z,897.10
2022-10-16T08:46:50.433Z,905.07
2022-10-16T08:49:19.053Z,908.10
2022-10-16T08:51:50.433Z,896.40
2022-10-16T08:54:27.740Z,908.87
2022-10-16T08:56:58.617Z,907.87
2022-10-16T08:59:26.734Z,875.43
2022-10-16T09:01:55.132Z,875.20
2022-10-16T09:04:49.328Z,867.23
2022-10-16T09:07:24.122Z,897.70
2022-10-16T09:10:02.558Z,893.10
2022-10-16T09:12:38.527Z,875.07
2022-10-16T09:15:16.509Z,866.20
2022-10-16T09:17:51.745Z,889.23
2022-10-16T09:20:26.106Z,860.43
2022-10-16T09:22:57.855Z,899.80
2022-10-16T09:25:25.985Z,843.97
2022-10-16T09:27:55.912Z,840.03
2022-10-16T09:30:24.185Z,844.97
2022-10-16T09:32:54.288Z,777.03
2022-10-16T09:35:24.455Z,733.43
2022-10-16T09:37:56.596Z,687.67
2022-10-16T09:40:36.858Z,649.00
2022-10-16T09:46:07.115Z,643.03
2022-10-16T09:48:41.677Z,605.37
2022-10-16T09:51:19.525Z,572.90
2022-10-16T09:54:02.917Z,556.97
2022-10-16T09:56:33.369Z,581.77
2022-10-16T09:59:07.325Z,588.53
2022-10-16T10:01:40.362Z,611.27
2022-10-16T10:04:09.265Z,643.10
2022-10-16T10:06:43.543Z,676.57
2022-10-16T10:09:22.864Z,729.70
2022-10-16T10:11:54.057Z,732.07
2022-10-16T10:14:32.259Z,771.67
2022-10-16T10:17:16.847Z,786.43
2022-10-16T10:19:49.273Z,802.37
2022-10-16T10:22:30.676Z,770.20
2022-10-16T10:25:20.570Z,804.80
2022-10-16T10:28:19.742Z,823.13
2022-10-16T10:30:58.919Z,806.07
2022-10-16T10:33:35.158Z,813.47
2022-10-16T10:36:14.306Z,820.80
2022-10-16T10:38:49.429Z,812.60
2022-10-16T10:41:35.864Z,831.03
2022-10-16T10:44:10.295Z,851.60
2022-10-16T10:46:45.759Z,891.53
2022-10-16T10:49:33.382Z,846.33
2022-10-16T10:52:15.704Z,883.50
2022-10-16T10:54:49.810Z,890.27
2022-10-16T10:57:23.984Z,893.00
2022-10-16T11:00:05.840Z,905.53
2022-10-16T11:02:40.324Z,909.97
2022-10-16T11:05:33.710Z,921.40
2022-10-16T11:08:04.888Z,918.50
2022-10-16T11:10:37.655Z,940.70
2022-10-16T11:13:13.439Z,926.33
2022-10-16T11:15:43.788Z,934.50
2022-10-16T11:18:18.363Z,927.57
2022-10-16T11:20:49.704Z,933.73
2022-10-16T11:23:20.752Z,924.87
2022-10-16T11:25:49.667Z,936.60
2022-10-16T11:28:21.288Z,950.53
2022-10-16T11:30:54.264Z,939.07
2022-10-16T11:33:32.566Z,933.00
2022-10-16T11:36:06.478Z,938.23
2022-10-16T11:38:41.597Z,932.40
2022-10-16T11:41:17.688Z,936.70
2022-10-16T11:43:50.936Z,942.23
2022-10-16T11:46:21.618Z,937.13
2022-10-16T11:48:53.868Z,943.70
2022-10-16T11:51:23.987Z,942.07
2022-10-16T11:53:57.775Z,943.43
2022-10-16T11:56:26.654Z,946.20
2022-10-16T11:58:58.800Z,940.57
2022-10-16T12:01:31.269Z,937.60
2022-10-16T12:04:18.269Z,939.13
2022-10-16T12:06:49.656Z,949.80
2022-10-16T12:09:22.787Z,943.13
2022-10-16T12:11:50.954Z,934.20
2022-10-16T12:14:23.186Z,929.10
2022-10-16T12:16:56.569Z,928.23
2022-10-16T12:19:27.588Z,943.47
2022-10-16T12:21:58.398Z,934.43
2022-10-16T12:24:35.163Z,943.33
2022-10-16T12:27:03.919Z,931.03
2022-10-16T12:29:36.277Z,935.23
2022-10-16T12:32:05.631Z,920.50
2022-10-16T12:34:40.729Z,918.27
2022-10-16T12:37:15.610Z,921.97
2022-10-16T12:39:43.721Z,920.23
2022-10-16T12:42:34.349Z,922.67
2022-10-16T12:45:03.345Z,927.63
2022-10-16T12:47:48.870Z,939.03
2022-10-16T12:50:32.631Z,935.63
2022-10-16T12:53:01.283Z,938.07
2022-10-16T12:55:29.583Z,928.77
2022-10-16T12:58:09.104Z,924.03
2022-10-16T13:00:45.272Z,938.13
2022-10-16T13:03:38.959Z,930.87
2022-10-16T13:06:19.860Z,933.37
2022-10-16T13:09:08.474Z,921.47
2022-10-16T13:12:00.489Z,899.03
2022-10-16T13:14:51.078Z,914.87
2022-10-16T13:17:24.976Z,902.60
2022-10-16T13:19:59.464Z,913.33
2022-10-16T13:22:33.004Z,903.87
2022-10-16T13:25:13.970Z,910.73
2022-10-16T13:27:47.296Z,911.73
2022-10-16T13:30:18.599Z,917.03
2022-10-16T13:32:49.226Z,916.17
2022-10-16T13:35:21.686Z,908.07
2022-10-16T13:37:51.307Z,914.90
2022-10-16T13:40:24.652Z,924.77
2022-10-16T13:42:59.636Z,931.73
2022-10-16T13:45:29.759Z,927.77
2022-10-16T13:48:05.280Z,912.77
2022-10-16T13:50:33.643Z,936.20
2022-10-16T13:53:15.451Z,938.37
2022-10-16T13:55:43.528Z,931.13
2022-10-16T13:58:16.133Z,931.30
2022-10-16T14:00:55.923Z,917.23
2022-10-16T14:03:24.035Z,922.63
2022-10-16T14:05:54.733Z,913.63
2022-10-16T14:08:26.388Z,925.30
2022-10-16T14:10:56.627Z,927.00
2022-10-16T14:13:31.223Z,926.87
2022-10-16T14:15:59.700Z,921.53
2022-10-16T14:18:33.411Z,919.43
2022-10-16T14:21:08.920Z,938.77
2022-10-16T14:23:39.832Z,934.67
2022-10-16T14:26:15.201Z,940.33
2022-10-16T14:28:44.341Z,927.73
2022-10-16T14:31:33.268Z,932.63
2022-10-16T14:34:02.220Z,946.07
2022-10-16T14:36:31.369Z,939.93
2022-10-16T14:39:03.747Z,962.67
2022-10-16T14:41:33.286Z,958.80
2022-10-16T14:44:04.931Z,940.60
2022-10-16T14:46:35.750Z,941.90
2022-10-16T14:49:07.409Z,957.13
2022-10-16T14:51:39.164Z,956.20
2022-10-16T14:54:11.587Z,962.67
2022-10-16T14:56:47.503Z,960.67
2022-10-16T14:59:18.726Z,954.87
2022-10-16T15:01:47.133Z,955.50
2022-10-16T15:04:16.483Z,960.93
2022-10-16T15:06:44.646Z,944.20
2022-10-16T15:09:14.297Z,947.33
2022-10-16T15:11:42.785Z,935.33
2022-10-16T15:14:16.130Z,931.23
2022-10-16T15:16:44.462Z,927.77
2022-10-16T15:19:12.618Z,918.27
2022-10-16T15:21:41.334Z,897.97
2022-10-16T15:24:12.813Z,904.87
2022-10-16T15:26:51.643Z,876.17
2022-10-16T15:29:20.054Z,856.30
2022-10-16T15:31:48.615Z,855.87
2022-10-16T15:34:17.315Z,834.23
2022-10-16T15:36:45.598Z,817.23
2022-10-16T15:39:19.895Z,797.57
2022-10-16T15:42:09.546Z,781.57
2022-10-16T15:44:41.073Z,755.73
2022-10-16T15:47:34.842Z,712.37
2022-10-16T15:50:35.664Z,683.77
2022-10-16T15:53:05.819Z,631.33
2022-10-16T15:55:38.874Z,629.93
2022-10-16T15:58:24.010Z,626.30
2022-10-16T16:00:58.079Z,620.77
2022-10-16T16:06:18.316Z,610.13
2022-10-16T16:08:49.796Z,641.27
2022-10-16T16:11:33.381Z,649.10
2022-10-16T16:14:50.857Z,648.67
2022-10-16T16:17:35.874Z,657.17
2022-10-16T16:20:37.022Z,709.57
2022-10-16T16:23:21.387Z,726.27
2022-10-16T16:26:15.822Z,741.90
2022-10-16T16:28:45.223Z,744.00
2022-10-16T16:31:14.792Z,763.80
2022-10-16T16:33:42.974Z,787.60
2022-10-16T16:36:15.465Z,793.17
2022-10-16T16:38:44.111Z,799.03
2022-10-16T16:41:16.000Z,798.83
2022-10-16T16:43:44.612Z,825.47
2022-10-16T16:46:17.490Z,808.63
2022-10-16T16:48:46.529Z,840.10
2022-10-16T16:51:17.279Z,853.63
2022-10-16T16:53:46.141Z,853.87
2022-10-16T16:56:17.027Z,860.60
2022-10-16T16:58:47.824Z,841.37
2022-10-16T17:01:20.294Z,869.57
2022-10-16T17:03:51.553Z,877.50
2022-10-16T17:06:24.694Z,877.60
2022-10-16T17:08:52.896Z,880.63
2022-10-16T17:11:23.314Z,879.63
2022-10-16T17:13:56.997Z,871.23
2022-10-16T17:16:29.182Z,881.63
2022-10-16T17:19:02.119Z,882.40
2022-10-16T17:21:30.782Z,887.13
2022-10-16T17:24:00.926Z,898.37
2022-10-16T17:26:29.361Z,883.40
2022-10-16T17:28:59.813Z,888.50
2022-10-16T17:31:31.933Z,892.50
2022-10-16T17:34:00.199Z,887.43
2022-10-16T17:36:31.027Z,897.63
2022-10-16T17:39:01.839Z,891.63
2022-10-16T17:41:30.054Z,892.93
2022-10-16T17:43:58.949Z,897.93
2022-10-16T17:46:27.344Z,897.97
2022-10-16T17:48:57.866Z,889.57
2022-10-16T17:51:29.994Z,899.03
2022-10-16T17:54:00.112Z,896.07
2022-10-16T17:56:29.180Z,896.73
2022-10-16T17:58:59.944Z,895.60
2022-10-16T18:01:30.087Z,888.03
2022-10-16T18:04:01.170Z,879.53
2022-10-16T18:06:30.123Z,887.93
2022-10-16T18:08:59.417Z,891.53
2022-10-16T18:11:28.866Z,879.97
2022-10-16T18:13:59.671Z,879.30
2022-10-16T18:16:29.279Z,887.27
2022-10-16T18:19:00.409Z,891.67
2022-10-16T18:21:30.934Z,877.70
2022-10-16T18:24:02.703Z,889.17
2022-10-16T18:26:33.264Z,889.20
2022-10-16T18:29:05.089Z,883.20
2022-10-16T18:31:34.463Z,882.83
2022-10-16T18:34:06.844Z,888.63
2022-10-16T18:36:38.777Z,894.93
2022-10-16T18:39:09.646Z,881.63
2022-10-16T18:41:38.421Z,880.23
2022-10-16T18:44:08.862Z,880.50
2022-10-16T18:46:37.301Z,893.40
2022-10-16T18:49:08.083Z,895.33
2022-10-16T18:51:37.436Z,883.90
2022-10-16T18:54:08.252Z,896.50
2022-10-16T18:56:37.512Z,886.27
2022-10-16T18:59:07.856Z,884.33
2022-10-16T19:01:39.239Z,887.57
2022-10-16T19:04:10.278Z,893.80
2022-10-16T19:06:40.591Z,899.37
2022-10-16T19:09:08.952Z,893.03
2022-10-16T19:11:41.337Z,896.50
2022-10-16T19:14:10.033Z,897.13
2022-10-16T19:16:38.922Z,896.60
2022-10-16T19:19:09.379Z,904.30
2022-10-16T19:21:41.258Z,905.83
2022-10-16T19:24:13.064Z,903.40
2022-10-16T19:26:42.378Z,888.50
2022-10-16T19:29:10.950Z,881.37
2022-10-16T19:31:39.604Z,883.10
2022-10-16T19:34:09.759Z,866.83
2022-10-16T19:36:39.282Z,877.83
2022-10-16T19:39:09.345Z,875.80
2022-10-16T19:41:37.826Z,873.47
2022-10-16T19:44:08.845Z,880.80
2022-10-16T19:46:38.617Z,873.43
2022-10-16T19:49:11.202Z,868.27
2022-10-16T19:51:40.097Z,865.30
2022-10-16T19:54:09.790Z,856.80
2022-10-16T19:56:38.586Z,861.63
2022-10-16T19:59:11.100Z,845.17
2022-10-16T20:01:39.529Z,855.73
2022-10-16T20:04:07.671Z,844.37
2022-10-16T20:06:37.371Z,845.83
2022-10-16T20:09:10.821Z,824.23
2022-10-16T20:11:43.133Z,853.37
2022-10-16T20:14:14.944Z,853.23
2022-10-16T20:16:53.412Z,842.00
2022-10-16T20:19:25.415Z,824.63
2022-10-16T20:21:55.607Z,826.77
2022-10-16T20:24:24.885Z,829.00
2022-10-16T20:26:53.311Z,835.43
2022-10-16T20:29:22.030Z,834.13
2022-10-16T20:31:50.330Z,823.20
2022-10-16T20:34:21.447Z,838.87
2022-10-16T20:36:50.862Z,839.30
2022-10-16T20:39:23.098Z,805.80
2022-10-16T20:41:51.380Z,823.23
2022-10-16T20:44:19.724Z,827.57
2022-10-16T20:46:51.024Z,800.90
2022-10-16T20:49:35.930Z,801.33
2022-10-16T20:52:08.051Z,765.73
2022-10-16T20:54:37.666Z,784.60
2022-10-16T21:00:11.260Z,753.53
2022-10-16T21:02:41.492Z,763.97
2022-10-16T21:05:11.063Z,765.23
2022-10-16T21:07:39.615Z,759.47
2022-10-16T21:10:10.446Z,764.00
2022-10-16T21:12:41.148Z,765.53
2022-10-16T21:15:15.172Z,744.30
2022-10-16T21:17:44.269Z,754.83
2022-10-16T21:20:12.685Z,764.00
2022-10-16T21:22:42.168Z,733.53
2022-10-16T21:25:14.132Z,717.77
2022-10-16T21:27:43.537Z,721.67
2022-10-16T21:30:12.273Z,733.03
2022-10-16T21:32:41.398Z,719.50
2022-10-16T21:35:10.052Z,707.23
2022-10-16T21:37:38.916Z,712.97
2022-10-16T21:40:08.441Z,693.63
2022-10-16T21:42:38.447Z,714.17
2022-10-16T21:45:07.778Z,705.90
2022-10-16T21:47:36.053Z,702.67
2022-10-16T21:50:06.067Z,688.40
2022-10-16T21:52:34.870Z,691.47
2022-10-16T21:55:03.429Z,703.67
2022-10-16T21:57:31.549Z,713.83
2022-10-16T22:00:03.169Z,722.57
2022-10-16T22:02:35.904Z,717.70
2022-10-16T22:05:05.327Z,730.37
2022-10-16T22:07:34.121Z,729.57
2022-10-16T22:10:02.257Z,746.13
2022-10-16T22:12:30.800Z,734.60
2022-10-16T22:15:00.322Z,741.97
2022-10-16T22:17:28.751Z,744.60
2022-10-16T22:19:57.339Z,762.37
2022-10-16T22:22:25.904Z,754.77
2022-10-16T22:24:54.444Z,748.50
2022-10-16T22:27:23.263Z,743.17
2022-10-16T22:29:52.324Z,725.80
2022-10-16T22:32:21.869Z,740.07
2022-10-16T22:34:50.211Z,741.40
2022-10-16T22:37:18.394Z,754.20
2022-10-16T22:39:46.643Z,752.00
2022-10-16T22:42:15.198Z,744.40
2022-10-16T22:44:43.285Z,752.20
2022-10-16T22:47:11.689Z,756.10
2022-10-16T22:49:41.848Z,762.70
2022-10-16T22:52:09.899Z,748.50
2022-10-16T22:54:38.229Z,759.97
2022-10-16T22:57:06.817Z,741.13
2022-10-16T22:59:35.015Z,751.17
2022-10-16T23:02:03.107Z,750.40
2022-10-16T23:04:33.286Z,747.07
2022-10-16T23:07:06.133Z,765.50
2022-10-16T23:09:34.296Z,755.07
2022-10-16T23:12:03.004Z,755.63
2022-10-16T23:14:31.285Z,764.07
2022-10-16T23:16:59.696Z,776.20
2022-10-16T23:19:28.122Z,761.90
2022-10-16T23:21:56.306Z,756.33
2022-10-16T23:24:26.042Z,776.67
2022-10-16T23:26:54.180Z,789.80
2022-10-16T23:29:22.427Z,787.73
2022-10-16T23:31:50.742Z,780.77
2022-10-16T23:34:25.621Z,783.57
2022-10-16T23:36:54.168Z,769.30
2022-10-16T23:39:22.273Z,777.17
2022-10-16T23:41:51.741Z,780.27
2022-10-16T23:44:20.054Z,781.40
2022-10-16T23:46:48.112Z,769.97
2022-10-16T23:49:16.423Z,770.23
2022-10-16T23:51:44.497Z,778.13
2022-10-16T23:54:12.969Z,783.07
2022-10-16T23:56:41.107Z,782.27
2022-10-16T23:59:10.608Z,792.50
